ADDS METAR Data INFO
IDs: Format: Raw Decoded Include TAF

Data at: 0923 UTC 13 Dec 2017

K2J9 130915Z AUTO 34006KT 10SM CLR 04/M01 A3008 RMK AO2
K2J9 130855Z AUTO 32004KT 10SM CLR 04/M01 A3008 RMK AO2
K2J9 130835Z AUTO 33006KT 10SM CLR 04/M00 A3008 RMK AO2
K2J9 130815Z AUTO 33005KT 10SM CLR 05/00 A3007 RMK AO2
K2J9 130755Z AUTO VRB05KT 10SM CLR 05/00 A3008 RMK AO2
K2J9 130735Z AUTO 31004KT 10SM CLR 05/00 A3007 RMK AO2
K2J9 130715Z AUTO VRB06KT 10SM CLR 05/01 A3007 RMK AO2
K2J9 130655Z AUTO 30005KT 10SM CLR 04/01 A3007 RMK AO2
K2J9 130635Z AUTO 28005KT 10SM CLR 04/01 A3007 RMK AO2
K2J9 130615Z AUTO 31004KT 10SM CLR 05/01 A3006 RMK AO2
K2J9 130555Z AUTO 30006KT 10SM CLR 06/01 A3007 RMK AO2
K2J9 130535Z AUTO 32005KT 10SM CLR 07/01 A3006 RMK AO2
K2J9 130515Z AUTO 32007KT 10SM CLR 07/01 A3007 RMK AO2
K2J9 130455Z AUTO 32006KT 10SM CLR 07/01 A3007 RMK AO2
K2J9 130435Z AUTO 32007KT 290V360 10SM CLR 07/01 A3007 RMK AO2
K2J9 130415Z AUTO 32008KT 10SM CLR 06/02 A3007 RMK AO2
K2J9 130355Z AUTO 31007KT 10SM CLR 06/02 A3008 RMK AO2
K2J9 130335Z AUTO 30007KT 10SM CLR 06/01 A3008 RMK AO2
K2J9 130315Z AUTO 31006KT 10SM CLR 06/02 A3007 RMK AO2
K2J9 130255Z AUTO 31006KT 10SM CLR 05/02 A3007 RMK AO2
K2J9 130235Z AUTO 29005KT 10SM CLR 05/01 A3007 RMK AO2
K2J9 130215Z AUTO 30005KT 10SM CLR 06/01 A3006 RMK AO2
K2J9 130155Z AUTO 31005KT 10SM CLR 06/02 A3005 RMK AO2
K2J9 130135Z AUTO 30005KT 10SM CLR 06/01 A3005 RMK AO2
K2J9 130115Z AUTO 31004KT 10SM CLR 07/02 A3004 RMK AO2
K2J9 130055Z AUTO 31004KT 10SM CLR 08/02 A3004 RMK AO2
K2J9 130035Z AUTO 31004KT 10SM CLR 08/01 A3004 RMK AO2
K2J9 130015Z AUTO 31004KT 10SM CLR 09/01 A3002 RMK AO2
K2J9 122355Z AUTO 31006KT 10SM CLR 09/01 A3002 RMK AO2
K2J9 122335Z AUTO 32006KT 10SM CLR 09/01 A3001 RMK AO2
K2J9 122315Z AUTO 31004KT 10SM CLR 10/01 A3000 RMK AO2
K2J9 122255Z AUTO VRB05KT 10SM CLR 12/00 A2999 RMK AO2
K2J9 122235Z AUTO 32007G12KT 290V350 10SM CLR 13/M00 A2998 RMK AO2
K2J9 122215Z AUTO VRB04G13KT 10SM CLR 14/M00 A2998 RMK AO2
K2J9 122155Z AUTO 31010KT 290V350 10SM CLR 15/M00 A2997 RMK AO2
K2J9 122135Z AUTO VRB06G15KT 10SM CLR 15/M00 A2996 RMK AO2
K2J9 122115Z AUTO 32007G19KT 290V010 10SM CLR 16/M01 A2996 RMK AO2
K2J9 122055Z AUTO 34009G18KT 310V020 10SM CLR 16/M00 A2996 RMK AO2
K2J9 122035Z AUTO 31016G26KT 10SM CLR 16/M01 A2995 RMK AO2
K2J9 122015Z AUTO 32009G17KT 280V350 10SM CLR 16/M00 A2995 RMK AO2
K2J9 121955Z AUTO 33008G22KT 280V010 10SM CLR 16/M00 A2994 RMK AO2
K2J9 121935Z AUTO 31015G22KT 10SM CLR 17/M00 A2995 RMK AO2
K2J9 121915Z AUTO 31013G19KT 10SM CLR 17/M00 A2995 RMK AO2
K2J9 121855Z AUTO 30015G22KT 10SM CLR 17/00 A2995 RMK AO2
K2J9 121835Z AUTO 30019G30KT 10SM CLR 17/00 A2996 RMK AO2
K2J9 121815Z AUTO 32015KT 290V360 10SM CLR 16/01 A2997 RMK AO2
K2J9 121755Z AUTO 31018G25KT 10SM CLR 17/02 A2997 RMK AO2
K2J9 121735Z AUTO 32011G24KT 10SM CLR 16/02 A2998 RMK AO2
K2J9 121715Z AUTO 32011G21KT 300V020 10SM CLR 16/03 A2999 RMK AO2
K2J9 121655Z AUTO 30014G23KT 10SM CLR 16/04 A3000 RMK AO2
K2J9 121635Z AUTO 31012G21KT 10SM CLR 16/04 A2999 RMK AO2
K2J9 121615Z AUTO 30017KT 10SM CLR 15/05 A3000 RMK AO2
K2J9 121555Z AUTO 29014KT 10SM CLR 15/05 A3000 RMK AO2
K2J9 121535Z AUTO 31009G16KT 280V350 10SM CLR 14/06 A3000 RMK AO2
K2J9 121515Z AUTO 27011KT 10SM CLR 14/05 A2999 RMK AO2
K2J9 121455Z AUTO 29011G16KT 10SM CLR 13/06 A2999 RMK AO2
K2J9 121435Z AUTO 30010KT 10SM CLR 12/06 A3000 RMK AO2
K2J9 121415Z AUTO 28006KT 10SM CLR 11/07 A2999 RMK AO2
K2J9 121355Z AUTO 27005KT 10SM CLR 10/07 A2999 RMK AO2
K2J9 121335Z AUTO 27007KT 10SM CLR 09/07 A2998 RMK AO2
K2J9 121315Z AUTO 26005KT 9SM CLR 05/05 A2998 RMK AO2
K2J9 121255Z AUTO 26004KT 10SM CLR 04/03 A2998 RMK AO2
K2J9 121235Z AUTO 27004KT 9SM CLR 03/02 A2999 RMK AO2
K2J9 121215Z AUTO 26006KT 10SM CLR 03/02 A2998 RMK AO2
K2J9 121155Z AUTO 28004KT 10SM CLR 02/01 A2998 RMK AO2
K2J9 121135Z AUTO 25004KT 10SM CLR 02/01 A2997 RMK AO2
K2J9 121115Z AUTO 25004KT 10SM CLR 02/01 A2997 RMK AO2
K2J9 121055Z AUTO 23003KT 10SM CLR 02/01 A2998 RMK AO2
K2J9 121035Z AUTO 23003KT 10SM FEW001 02/01 A2998 RMK AO2
K2J9 121015Z AUTO 00000KT 10SM SCT001 02/02 A2999 RMK AO2
K2J9 120955Z AUTO 00000KT 10SM FEW001 02/02 A3000 RMK AO2
K2J9 120935Z AUTO 00000KT 10SM CLR 02/02 A3000 RMK AO2
K2J9 120915Z AUTO 26003KT 10SM CLR 03/02 A3001 RMK AO2
K2J9 120855Z AUTO 00000KT 10SM CLR 03/02 A3002 RMK AO2
K2J9 120835Z AUTO 00000KT 10SM CLR 03/02 A3003 RMK AO2
K2J9 120815Z AUTO 00000KT 10SM CLR 03/02 A3003 RMK AO2
K2J9 120755Z AUTO 25003KT 10SM CLR 03/03 A3003 RMK AO2
K2J9 120735Z AUTO 00000KT 10SM FEW025 FEW031 FEW038 03/03 A3004 RMK AO2
K2J9 120715Z AUTO 00000KT 10SM FEW026 FEW031 04/03 A3005 RMK AO2
K2J9 120655Z AUTO 00000KT 10SM CLR 03/03 A3005 RMK AO2
K2J9 120635Z AUTO 00000KT 10SM CLR 04/03 A3006 RMK AO2
K2J9 120615Z AUTO 00000KT 10SM CLR 04/03 A3007 RMK AO2
K2J9 120555Z AUTO 00000KT 10SM CLR 04/03 A3007 RMK AO2
K2J9 120535Z AUTO 00000KT 10SM CLR 04/03 A3008 RMK AO2
K2J9 120515Z AUTO 20004KT 10SM CLR 04/03 A3008 RMK AO2
K2J9 120455Z AUTO 00000KT 10SM CLR 04/03 A3009 RMK AO2
K2J9 120435Z AUTO 00000KT 10SM CLR 05/04 A3010 RMK AO2
K2J9 120415Z AUTO 00000KT 10SM CLR 05/04 A3011 RMK AO2
K2J9 120355Z AUTO 00000KT 10SM CLR 05/04 A3011 RMK AO2
K2J9 120335Z AUTO 00000KT 10SM CLR 06/04 A3012 RMK AO2
K2J9 120315Z AUTO 00000KT 10SM CLR 06/04 A3012 RMK AO2
K2J9 120255Z AUTO 00000KT 10SM BKN028 SCT035 06/04 A3012 RMK AO2
K2J9 120235Z AUTO 00000KT 10SM BKN027 OVC033 06/04 A3012 RMK AO2
K2J9 120215Z AUTO 22003KT 10SM SCT033 SCT039 06/04 A3012 RMK AO2
K2J9 120155Z AUTO 24004KT 10SM CLR 07/04 A3013 RMK AO2
K2J9 120135Z AUTO 24004KT 10SM CLR 08/04 A3013 RMK AO2
K2J9 120115Z AUTO 23004KT 10SM CLR 08/03 A3013 RMK AO2
K2J9 120055Z AUTO 00000KT 10SM CLR 09/04 A3013 RMK AO2
K2J9 120035Z AUTO 22004KT 10SM CLR 09/03 A3014 RMK AO2
K2J9 120015Z AUTO 23004KT 10SM CLR 11/02 A3014 RMK AO2
K2J9 112355Z AUTO 23004KT 10SM FEW034 SCT043 12/01 A3014 RMK AO2
K2J9 112335Z AUTO 24005KT 10SM FEW035 BKN043 13/01 A3014 RMK AO2
K2J9 112315Z AUTO VRB05G10KT 10SM FEW047 14/01 A3014 RMK AO2
K2J9 112255Z AUTO 22004KT 10SM CLR 12/02 A3014 RMK AO2
K2J9 112235Z AUTO 21004KT 10SM CLR 15/01 A3014 RMK AO2
K2J9 112215Z AUTO 22005KT 10SM CLR 16/00 A3014 RMK AO2
K2J9 112155Z AUTO 24006KT 10SM CLR 17/M00 A3014 RMK AO2
K2J9 112135Z AUTO 24005G11KT 10SM CLR 17/M00 A3014 RMK AO2